createdAt,value
2022-12-18T00:00:32.726Z,101934.53
2022-12-18T00:03:21.437Z,101924.44
2022-12-18T00:06:10.939Z,101922.75
2022-12-18T00:09:01.049Z,101931.88
2022-12-18T00:11:49.660Z,101933.00
2022-12-18T00:14:38.408Z,101945.88
2022-12-18T00:17:31.636Z,101963.63
2022-12-18T00:20:26.395Z,101962.22
2022-12-18T00:23:14.998Z,101967.28
2022-12-18T00:26:03.967Z,101960.56
2022-12-18T00:28:52.795Z,101966.28
2022-12-18T00:31:41.853Z,101965.59
2022-12-18T00:34:32.123Z,101964.06
2022-12-18T00:37:20.692Z,101953.28
2022-12-18T00:40:10.811Z,101969.38
2022-12-18T00:42:58.532Z,101978.22
2022-12-18T00:45:47.200Z,101975.69
2022-12-18T00:48:36.060Z,101982.13
2022-12-18T00:51:26.428Z,101980.19
2022-12-18T00:54:15.263Z,101988.16
2022-12-18T00:57:03.889Z,101982.41
2022-12-18T00:59:52.490Z,101977.09
2022-12-18T01:02:41.502Z,101970.09
2022-12-18T01:05:30.641Z,101977.09
2022-12-18T01:08:20.677Z,101982.41
2022-12-18T01:11:10.791Z,101989.41
2022-12-18T01:13:59.499Z,101992.06
2022-12-18T01:16:48.284Z,101986.03
2022-12-18T01:19:37.669Z,101987.72
2022-12-18T01:22:26.479Z,101986.03
2022-12-18T01:25:16.481Z,101999.50
2022-12-18T01:28:05.689Z,102005.34
2022-12-18T01:30:54.385Z,102016.97
2022-12-18T01:33:43.286Z,102003.97
2022-12-18T01:36:33.649Z,102010.94
2022-12-18T01:39:22.346Z,102015.44
2022-12-18T01:42:14.520Z,102009.44
2022-12-18T01:45:11.649Z,102008.28
2022-12-18T01:48:02.489Z,102003.97
2022-12-18T01:50:51.689Z,101999.72
2022-12-18T01:53:42.041Z,102000.59
2022-12-18T01:56:31.307Z,102007.59
2022-12-18T01:59:21.631Z,102013.47
2022-12-18T02:02:10.527Z,102008.47
2022-12-18T02:04:59.346Z,102010.94
2022-12-18T02:07:54.738Z,102008.47
2022-12-18T02:10:49.340Z,102012.63
2022-12-18T02:13:43.914Z,102010.13
2022-12-18T02:16:43.119Z,102010.94
2022-12-18T02:19:45.623Z,102007.59
2022-12-18T02:22:40.681Z,102000.59
2022-12-18T02:25:46.035Z,101999.72
2022-12-18T02:28:38.060Z,102004.66
2022-12-18T02:31:28.936Z,102017.41
2022-12-18T02:34:18.261Z,102025.22
2022-12-18T02:37:12.308Z,102023.56
2022-12-18T02:40:01.865Z,102021.00
2022-12-18T02:42:50.419Z,102014.84
2022-12-18T02:45:49.312Z,102019.22
2022-12-18T02:48:38.461Z,102023.81
2022-12-18T02:51:32.450Z,102020.47
2022-12-18T02:54:32.693Z,102020.16
2022-12-18T02:57:26.750Z,102022.97
2022-12-18T03:00:18.003Z,102019.72
2022-12-18T03:03:10.276Z,102021.16
2022-12-18T03:06:01.490Z,102020.16
2022-12-18T03:08:53.232Z,102025.50
2022-12-18T03:12:01.880Z,102021.88
2022-12-18T03:14:52.860Z,102023.25
2022-12-18T03:17:45.111Z,102021.16
2022-12-18T03:20:37.602Z,102028.06
2022-12-18T03:23:30.171Z,102041.44
2022-12-18T03:26:20.759Z,102043.41
2022-12-18T03:29:12.406Z,102034.72
2022-12-18T03:32:05.043Z,102029.41
2022-12-18T03:34:55.444Z,102033.75
2022-12-18T03:37:45.489Z,102034.44
2022-12-18T03:40:38.614Z,102039.75
2022-12-18T03:43:37.682Z,102043.25
2022-12-18T03:46:30.086Z,102034.72
2022-12-18T03:49:26.150Z,102037.41
2022-12-18T03:52:19.512Z,102042.72
2022-12-18T03:55:10.077Z,102047.28
2022-12-18T03:57:59.408Z,102040.06
2022-12-18T04:00:48.690Z,102039.19
2022-12-18T04:03:38.780Z,102048.97
2022-12-18T04:06:28.043Z,102040.59
2022-12-18T04:09:17.059Z,102047.03
2022-12-18T04:12:07.492Z,102047.03
2022-12-18T04:14:56.257Z,102054.28
2022-12-18T04:17:50.200Z,102061.31
2022-12-18T04:20:38.873Z,102060.59
2022-12-18T04:23:27.601Z,102058.78
2022-12-18T04:26:16.268Z,102070.25
2022-12-18T04:29:06.490Z,102060.47
2022-12-18T04:31:55.263Z,102055.03
2022-12-18T04:34:44.239Z,102057.94
2022-12-18T04:37:33.076Z,102059.47
2022-12-18T04:40:22.304Z,102067.59
2022-12-18T04:43:11.076Z,102070.25
2022-12-18T04:46:06.204Z,102074.63
2022-12-18T04:48:54.880Z,102078.09
2022-12-18T04:51:43.441Z,102076.28
2022-12-18T04:54:32.065Z,102079.19
2022-12-18T04:57:20.655Z,102077.28
2022-12-18T05:00:10.474Z,102066.47
2022-12-18T05:03:00.559Z,102071.94
2022-12-18T05:05:52.145Z,102069.53
2022-12-18T05:08:40.783Z,102070.25
2022-12-18T05:11:29.777Z,102073.88
2022-12-18T05:14:18.349Z,102071.94
2022-12-18T05:17:06.979Z,102069.53
2022-12-18T05:19:56.931Z,102071.94
2022-12-18T05:22:45.529Z,102068.31
2022-12-18T05:25:34.097Z,102078.22
2022-12-18T05:28:23.257Z,102074.63
2022-12-18T05:31:12.269Z,102075.56
2022-12-18T05:34:00.902Z,102078.94
2022-12-18T05:36:50.955Z,102072.19
2022-12-18T05:39:39.642Z,102072.91
2022-12-18T05:42:28.358Z,102080.19
2022-12-18T05:45:17.042Z,102083.53
2022-12-18T05:48:06.243Z,102080.88
2022-12-18T05:50:54.854Z,102080.88
2022-12-18T05:53:45.803Z,102074.75
2022-12-18T05:56:34.373Z,102080.06
2022-12-18T05:59:23.132Z,102089.28
2022-12-18T06:02:11.820Z,102088.44
2022-12-18T06:05:00.518Z,102093.75
2022-12-18T06:07:49.199Z,102087.47
2022-12-18T06:10:39.397Z,102086.63
2022-12-18T06:13:28.080Z,102097.09
2022-12-18T06:16:16.654Z,102099.06
2022-12-18T06:19:07.383Z,102095.44
2022-12-18T06:21:58.727Z,102104.38
2022-12-18T06:24:47.316Z,102106.06
2022-12-18T06:27:37.402Z,102097.69
2022-12-18T06:30:26.096Z,102097.69
2022-12-18T06:33:14.758Z,102108.31
2022-12-18T06:36:04.208Z,102113.63
2022-12-18T06:38:52.847Z,102121.72
2022-12-18T06:41:41.418Z,102116.41
2022-12-18T06:44:31.400Z,102111.94
2022-12-18T06:47:20.213Z,102115.31
2022-12-18T06:50:09.733Z,102120.63
2022-12-18T06:52:58.302Z,102125.94
2022-12-18T06:55:46.924Z,102113.63
2022-12-18T06:58:35.619Z,102132.22
2022-12-18T07:01:25.706Z,102136.97
2022-12-18T07:04:14.329Z,102130.97
2022-12-18T07:07:03.014Z,102132.47
2022-12-18T07:09:52.225Z,102136.69
2022-12-18T07:12:40.836Z,102142.72
2022-12-18T07:15:29.449Z,102134.03
2022-12-18T07:18:19.431Z,102143.09
2022-12-18T07:21:09.201Z,102140.72
2022-12-18T07:23:57.830Z,102144.38
2022-12-18T07:26:48.243Z,102144.25
2022-12-18T07:29:36.901Z,102149.56
2022-12-18T07:32:26.586Z,102142.00
2022-12-18T07:35:19.487Z,102155.97
2022-12-18T07:38:12.050Z,102160.31
2022-12-18T07:41:03.198Z,102162.00
2022-12-18T07:43:51.982Z,102162.00
2022-12-18T07:46:41.237Z,102162.84
2022-12-18T07:49:30.542Z,102170.66
2022-12-18T07:52:25.801Z,102173.34
2022-12-18T07:55:14.891Z,102172.34
2022-12-18T07:58:04.371Z,102180.59
2022-12-18T08:00:53.173Z,102170.66
2022-12-18T08:03:43.419Z,102172.34
2022-12-18T08:06:32.041Z,102168.75
2022-12-18T08:09:22.074Z,102163.44
2022-12-18T08:12:10.678Z,102160.03
2022-12-18T08:14:59.312Z,102145.78
2022-12-18T08:17:47.909Z,102154.19
2022-12-18T08:20:36.540Z,102149.16
2022-12-18T08:23:28.649Z,102157.56
2022-12-18T08:26:18.989Z,102155.88
2022-12-18T08:29:08.101Z,102156.28
2022-12-18T08:31:56.749Z,102162.59
2022-12-18T08:34:45.393Z,102170.44
2022-12-18T08:37:34.508Z,102153.91
2022-12-18T08:40:23.130Z,102159.22
2022-12-18T08:43:30.926Z,102158.94
2022-12-18T08:46:19.788Z,102164.28
2022-12-18T08:49:08.874Z,102156.28
2022-12-18T08:51:58.246Z,102157.03
2022-12-18T08:54:46.887Z,102162.34
2022-12-18T08:57:35.511Z,102163.75
2022-12-18T09:00:25.540Z,102171.84
2022-12-18T09:03:14.861Z,102177.03
2022-12-18T09:06:03.558Z,102165.94
2022-12-18T09:08:52.305Z,102153.72
2022-12-18T09:11:41.222Z,102162.66
2022-12-18T09:14:29.881Z,102176.50
2022-12-18T09:17:19.916Z,102179.16
2022-12-18T09:20:09.841Z,102187.88
2022-12-18T09:22:58.636Z,102186.78
2022-12-18T09:25:47.346Z,102194.06
2022-12-18T09:28:36.115Z,102187.78
2022-12-18T09:31:25.925Z,102190.72
2022-12-18T09:34:16.022Z,102187.09
2022-12-18T09:37:04.628Z,102192.38
2022-12-18T09:39:53.182Z,102187.91
2022-12-18T09:42:41.867Z,102193.16
2022-12-18T09:45:30.591Z,102183.50
2022-12-18T09:48:21.134Z,102182.50
2022-12-18T09:51:17.218Z,102180.25
2022-12-18T09:54:07.933Z,102170.97
2022-12-18T09:56:56.751Z,102172.69
2022-12-18T09:59:47.507Z,102175.44
2022-12-18T10:02:36.407Z,102157.47
2022-12-18T10:05:35.004Z,102160.84
2022-12-18T10:08:43.653Z,102144.84
2022-12-18T10:11:46.414Z,102138.38
2022-12-18T10:14:39.510Z,102120.13
2022-12-18T10:17:33.212Z,102120.63
2022-12-18T10:20:27.602Z,102123.56
2022-12-18T10:23:23.233Z,102112.16
2022-12-18T10:26:14.208Z,102114.91
2022-12-18T10:29:05.853Z,102116.28
2022-12-18T10:31:54.617Z,102104.63
2022-12-18T10:34:43.228Z,102097.34
2022-12-18T10:37:32.454Z,102100.69
2022-12-18T10:40:22.772Z,102090.34
2022-12-18T10:43:16.554Z,102088.03
2022-12-18T10:46:17.552Z,102083.41
2022-12-18T10:49:06.906Z,102079.75
2022-12-18T10:52:08.291Z,102078.75
2022-12-18T10:54:59.215Z,102080.72
2022-12-18T10:57:47.888Z,102090.03
2022-12-18T11:00:38.290Z,102081.03
2022-12-18T11:03:37.050Z,102086.22
2022-12-18T11:06:26.852Z,102089.81
2022-12-18T11:09:23.103Z,102081.00
2022-12-18T11:12:18.623Z,102070.47
2022-12-18T11:15:08.115Z,102061.59
2022-12-18T11:17:59.195Z,102071.56
2022-12-18T11:20:58.295Z,102058.09
2022-12-18T11:23:49.969Z,102050.88
2022-12-18T11:26:40.511Z,102051.59
2022-12-18T11:29:35.993Z,102046.53
2022-12-18T11:32:32.323Z,102054.00
2022-12-18T11:35:35.131Z,102059.03
2022-12-18T11:38:26.232Z,102057.19
2022-12-18T11:41:20.083Z,102050.13
2022-12-18T11:44:13.292Z,102051.50
2022-12-18T11:47:06.702Z,102047.38
2022-12-18T11:49:55.814Z,102056.66
2022-12-18T11:52:45.824Z,102044.03
2022-12-18T11:55:41.721Z,102065.06
2022-12-18T11:58:44.019Z,102072.97
2022-12-18T12:01:44.023Z,102056.66
2022-12-18T12:04:47.712Z,102061.44
2022-12-18T12:07:44.297Z,102061.03
2022-12-18T12:10:46.069Z,102060.81
2022-12-18T12:13:44.146Z,102072.41
2022-12-18T12:16:37.855Z,102071.19
2022-12-18T12:19:38.005Z,102076.44
2022-12-18T12:22:30.601Z,102083.22
2022-12-18T12:25:32.212Z,102075.13
2022-12-18T12:28:37.424Z,102083.75
2022-12-18T12:31:35.023Z,102089.75
2022-12-18T12:34:27.582Z,102092.22
2022-12-18T12:37:25.265Z,102099.78
2022-12-18T12:40:48.218Z,102101.97
2022-12-18T12:43:31.569Z,102106.09
2022-12-18T12:46:22.756Z,102103.47
2022-12-18T12:49:14.892Z,102094.88
2022-12-18T12:52:08.149Z,102081.44
2022-12-18T12:54:57.423Z,102085.88
2022-12-18T12:57:49.302Z,102087.75
2022-12-18T13:00:44.212Z,102082.97
2022-12-18T13:03:40.017Z,102084.31
2022-12-18T13:06:50.561Z,102078.97
2022-12-18T13:10:17.826Z,102072.75
2022-12-18T13:13:10.495Z,102083.41
2022-12-18T13:16:07.538Z,102066.94
2022-12-18T13:18:58.828Z,102061.28
2022-12-18T13:21:55.933Z,102061.06
2022-12-18T13:24:44.549Z,102066.41
2022-12-18T13:28:00.715Z,102067.66
2022-12-18T13:30:57.879Z,102067.88
2022-12-18T13:34:24.484Z,102075.41
2022-12-18T13:37:00.508Z,102078.97
2022-12-18T13:39:49.354Z,102089.38
2022-12-18T13:42:59.431Z,102069.06
2022-12-18T13:45:50.988Z,102070.81
2022-12-18T13:48:41.496Z,102073.09
2022-12-18T13:51:31.711Z,102069.94
2022-12-18T13:54:22.705Z,102067.03
2022-12-18T13:57:28.626Z,102058.38
2022-12-18T14:00:29.459Z,102060.31
2022-12-18T14:03:22.371Z,102068.19
2022-12-18T14:06:11.560Z,102067.88
2022-12-18T14:09:00.828Z,102070.41
2022-12-18T14:11:50.275Z,102073.09
2022-12-18T14:14:40.266Z,102076.78
2022-12-18T14:17:29.618Z,102066.44
2022-12-18T14:20:21.410Z,102072.66
2022-12-18T14:23:28.582Z,102065.28
2022-12-18T14:26:29.911Z,102055.69
2022-12-18T14:29:26.981Z,102057.38
2022-12-18T14:32:18.767Z,102051.97
2022-12-18T14:35:16.077Z,102044.31
2022-12-18T14:38:23.269Z,102041.28
2022-12-18T14:41:14.686Z,102035.03
2022-12-18T14:44:08.960Z,102035.31
2022-12-18T14:46:57.599Z,102038.97
2022-12-18T14:49:46.473Z,102033.34
2022-12-18T14:52:35.298Z,102036.41
2022-12-18T14:55:25.338Z,102034.19
2022-12-18T14:58:16.714Z,102053.28
2022-12-18T15:01:35.990Z,102064.38
2022-12-18T15:04:33.429Z,102051.28
2022-12-18T15:07:24.418Z,102045.69
2022-12-18T15:10:15.365Z,102042.34
2022-12-18T15:13:18.727Z,102036.19
2022-12-18T15:16:14.763Z,102047.06
2022-12-18T15:19:03.640Z,102050.06
2022-12-18T15:21:52.237Z,102042.63
2022-12-18T15:24:40.871Z,102034.06
2022-12-18T15:27:32.622Z,102038.69
2022-12-18T15:30:24.885Z,102032.59
2022-12-18T15:33:26.674Z,102029.25
2022-12-18T15:36:21.365Z,102028.00
2022-12-18T15:39:15.638Z,102017.28
2022-12-18T15:42:22.006Z,102016.59
2022-12-18T15:45:14.163Z,102021.97
2022-12-18T15:48:04.164Z,102008.00
2022-12-18T15:50:53.342Z,102010.81
2022-12-18T15:53:42.230Z,102018.69
2022-12-18T15:56:48.953Z,102019.59
2022-12-18T15:59:38.451Z,102007.16
2022-12-18T16:02:28.715Z,102011.81
2022-12-18T16:05:21.182Z,102006.00
2022-12-18T16:08:09.821Z,102014.13
2022-12-18T16:10:58.742Z,102000.66
2022-12-18T16:13:47.341Z,101999.41
2022-12-18T16:16:35.998Z,102001.41
2022-12-18T16:19:25.296Z,102000.34
2022-12-18T16:22:23.147Z,102000.34
2022-12-18T16:25:26.831Z,102012.41
2022-12-18T16:28:15.522Z,102006.09
2022-12-18T16:31:04.187Z,102004.16
2022-12-18T16:33:53.049Z,101992.84
2022-12-18T16:36:41.624Z,101998.56
2022-12-18T16:39:32.924Z,102002.34
2022-12-18T16:42:22.083Z,102001.00
2022-12-18T16:45:12.630Z,101986.53
2022-12-18T16:48:01.390Z,101982.25
2022-12-18T16:50:49.943Z,101983.50
2022-12-18T16:53:38.853Z,101985.38
2022-12-18T16:56:29.133Z,101987.06
2022-12-18T16:59:17.852Z,101986.06
2022-12-18T17:02:06.657Z,101983.06
2022-12-18T17:04:56.416Z,101988.81
2022-12-18T17:07:45.050Z,101983.06
2022-12-18T17:10:34.075Z,101986.31
2022-12-18T17:13:26.101Z,101968.53
2022-12-18T17:16:15.002Z,101987.63
2022-12-18T17:19:03.773Z,101990.00
2022-12-18T17:21:52.759Z,101966.63
2022-12-18T17:24:41.361Z,101974.31
2022-12-18T17:27:30.016Z,101975.44
2022-12-18T17:30:20.163Z,101976.44
2022-12-18T17:33:08.820Z,101970.97
2022-12-18T17:36:00.602Z,101957.84
2022-12-18T17:38:52.645Z,101964.84
2022-12-18T17:41:41.230Z,101972.53
2022-12-18T17:44:29.900Z,101967.56
2022-12-18T17:47:20.073Z,101968.75
2022-12-18T17:50:09.696Z,101961.22
2022-12-18T17:52:58.677Z,101953.53
2022-12-18T17:55:56.343Z,101949.00
2022-12-18T17:58:45.100Z,101949.88
2022-12-18T18:01:33.989Z,101953.22
2022-12-18T18:04:24.195Z,101942.53
2022-12-18T18:07:12.795Z,101934.72
2022-12-18T18:10:01.461Z,101947.91
2022-12-18T18:13:07.455Z,101939.91
2022-12-18T18:15:59.275Z,101935.69
2022-12-18T18:18:47.891Z,101925.53
2022-12-18T18:21:42.270Z,101933.25
2022-12-18T18:24:31.867Z,101931.38
2022-12-18T18:27:20.707Z,101930.06
2022-12-18T18:30:11.036Z,101932.56
2022-12-18T18:32:59.645Z,101922.72
2022-12-18T18:35:55.530Z,101920.53
2022-12-18T18:38:48.534Z,101912.38
2022-12-18T18:41:37.377Z,101906.88
2022-12-18T18:44:26.555Z,101918.72
2022-12-18T18:47:18.226Z,101902.50
2022-12-18T18:50:08.083Z,101899.00
2022-12-18T18:52:56.807Z,101891.63
2022-12-18T18:55:51.734Z,101897.59
2022-12-18T18:58:52.820Z,101889.75
2022-12-18T19:01:41.562Z,101895.44
2022-12-18T19:04:30.644Z,101881.06
2022-12-18T19:07:30.543Z,101873.94
2022-12-18T19:10:19.811Z,101870.44
2022-12-18T19:13:21.151Z,101866.44
2022-12-18T19:16:10.995Z,101859.06
2022-12-18T19:19:01.776Z,101859.56
2022-12-18T19:21:51.043Z,101846.06
2022-12-18T19:24:40.026Z,101844.06
2022-12-18T19:27:28.636Z,101840.53
2022-12-18T19:30:18.720Z,101846.06
2022-12-18T19:33:34.608Z,101839.38
2022-12-18T19:36:20.309Z,101834.00
2022-12-18T19:39:11.823Z,101817.97
2022-12-18T19:42:00.454Z,101807.97
2022-12-18T19:44:49.097Z,101807.81
2022-12-18T19:47:39.188Z,101800.78
2022-12-18T19:50:28.001Z,101808.31
2022-12-18T19:53:16.686Z,101810.63
2022-12-18T19:56:08.719Z,101811.13
2022-12-18T19:58:57.398Z,101799.63
2022-12-18T20:01:46.052Z,101800.13
2022-12-18T20:04:36.029Z,101798.28
2022-12-18T20:07:24.643Z,101797.94
2022-12-18T20:10:15.628Z,101806.66
2022-12-18T20:13:06.480Z,101803.63
2022-12-18T20:15:55.060Z,101796.13
2022-12-18T20:18:43.613Z,101799.28
2022-12-18T20:21:34.732Z,101796.25
2022-12-18T20:24:23.442Z,101800.28
2022-12-18T20:27:16.166Z,101807.28
2022-12-18T20:30:07.920Z,101804.97
2022-12-18T20:32:56.546Z,101796.44
2022-12-18T20:35:45.234Z,101792.59
2022-12-18T20:38:38.332Z,101790.28
2022-12-18T20:41:27.716Z,101787.59
2022-12-18T20:44:27.195Z,101780.22
2022-12-18T20:47:16.007Z,101785.25
2022-12-18T20:50:04.878Z,101774.06
2022-12-18T20:52:53.470Z,101759.03
2022-12-18T20:55:46.167Z,101758.53
2022-12-18T20:58:35.586Z,101760.88
2022-12-18T21:01:24.996Z,101763.88
2022-12-18T21:04:13.708Z,101776.91
2022-12-18T21:07:03.124Z,101764.22
2022-12-18T21:09:51.908Z,101762.03
2022-12-18T21:12:56.143Z,101770.88
2022-12-18T21:15:50.766Z,101762.03
2022-12-18T21:18:39.344Z,101765.19
2022-12-18T21:21:28.111Z,101768.06
2022-12-18T21:24:16.985Z,101768.88
2022-12-18T21:27:05.854Z,101756.66
2022-12-18T21:29:55.937Z,101753.84
2022-12-18T21:32:44.787Z,101746.69
2022-12-18T21:35:33.341Z,101760.53
2022-12-18T21:38:22.040Z,101760.19
2022-12-18T21:41:31.887Z,101764.53
2022-12-18T21:44:19.674Z,101757.53
2022-12-18T21:47:20.889Z,101763.88
2022-12-18T21:50:11.820Z,101754.69
2022-12-18T21:53:00.520Z,101753.38
2022-12-18T21:55:49.106Z,101765.53
2022-12-18T21:58:37.675Z,101761.19
2022-12-18T22:01:26.435Z,101748.50
2022-12-18T22:04:27.347Z,101742.16
2022-12-18T22:07:17.514Z,101735.47
2022-12-18T22:10:06.665Z,101739.63
2022-12-18T22:12:55.272Z,101750.97
2022-12-18T22:15:44.022Z,101741.31
2022-12-18T22:18:32.608Z,101744.16
2022-12-18T22:21:29.358Z,101740.47
2022-12-18T22:24:20.050Z,101747.19
2022-12-18T22:27:08.792Z,101745.97
2022-12-18T22:30:05.488Z,101727.94
2022-12-18T22:32:54.142Z,101735.81
2022-12-18T22:35:42.791Z,101719.81
2022-12-18T22:38:32.817Z,101727.09
2022-12-18T22:41:21.477Z,101718.06
2022-12-18T22:44:10.460Z,101721.41
2022-12-18T22:47:05.717Z,101725.06
2022-12-18T22:49:55.261Z,101726.06
2022-12-18T22:52:43.985Z,101721.06
2022-12-18T22:55:33.957Z,101705.06
2022-12-18T22:58:22.655Z,101699.06
2022-12-18T23:01:21.153Z,101697.50
2022-12-18T23:04:10.681Z,101699.50
2022-12-18T23:06:59.278Z,101687.66
2022-12-18T23:09:49.304Z,101685.97
2022-12-18T23:12:40.699Z,101684.00
2022-12-18T23:15:29.382Z,101689.97
2022-12-18T23:18:18.211Z,101667.94
2022-12-18T23:21:07.946Z,101663.44
2022-12-18T23:23:57.435Z,101657.88
2022-12-18T23:26:46.397Z,101655.72
2022-12-18T23:29:36.762Z,101647.34
2022-12-18T23:32:25.427Z,101648.00
2022-12-18T23:35:14.227Z,101649.09
2022-12-18T23:38:04.553Z,101632.28
2022-12-18T23:40:53.190Z,101625.94
2022-12-18T23:43:45.642Z,101634.16
2022-12-18T23:46:37.558Z,101624.78
2022-12-18T23:49:26.462Z,101610.78
2022-12-18T23:52:15.435Z,101607.94
2022-12-18T23:55:04.111Z,101598.34
2022-12-18T23:57:52.700Z,101593.50
